createdAt,value
2023-10-14T00:02:28.238Z,71.94
2023-10-14T00:04:56.864Z,71.07
2023-10-14T00:07:26.940Z,71.49
2023-10-14T00:09:58.793Z,71.36
2023-10-14T00:12:29.796Z,72.09
2023-10-14T00:15:04.953Z,71.85
2023-10-14T00:17:42.878Z,71.79
2023-10-14T00:20:11.942Z,71.06
2023-10-14T00:22:40.708Z,70.97
2023-10-14T00:25:20.442Z,70.67
2023-10-14T00:27:51.935Z,70.28
2023-10-14T00:30:21.744Z,69.92
2023-10-14T00:32:51.448Z,69.90
2023-10-14T00:35:21.231Z,69.92
2023-10-14T00:37:49.604Z,69.72
2023-10-14T00:40:23.698Z,69.84
2023-10-14T00:42:53.230Z,70.23
2023-10-14T00:45:22.708Z,69.43
2023-10-14T00:47:52.497Z,69.51
2023-10-14T00:50:34.847Z,69.18
2023-10-14T00:53:07.151Z,68.86
2023-10-14T00:55:53.144Z,69.11
2023-10-14T00:58:24.711Z,69.11
2023-10-14T01:01:02.237Z,69.29
2023-10-14T01:03:33.178Z,69.47
2023-10-14T01:06:08.571Z,69.19
2023-10-14T01:08:39.634Z,68.57
2023-10-14T01:11:08.939Z,68.37
2023-10-14T01:13:37.299Z,67.94
2023-10-14T01:16:10.207Z,68.05
2023-10-14T01:18:42.715Z,68.25
2023-10-14T01:21:10.980Z,68.54
2023-10-14T01:23:42.388Z,69.19
2023-10-14T01:26:11.382Z,68.99
2023-10-14T01:28:45.837Z,68.78
2023-10-14T01:31:33.180Z,69.19
2023-10-14T01:34:03.305Z,69.10
2023-10-14T01:36:38.955Z,69.39
2023-10-14T01:39:13.142Z,69.32
2023-10-14T01:41:41.595Z,69.93
2023-10-14T01:44:11.273Z,69.80
2023-10-14T01:46:41.690Z,69.72
2023-10-14T01:49:18.228Z,70.04
2023-10-14T01:51:50.405Z,69.79
2023-10-14T01:54:20.177Z,69.25
2023-10-14T01:56:52.647Z,69.61
2023-10-14T01:59:24.649Z,69.32
2023-10-14T02:01:59.022Z,68.99
2023-10-14T02:04:28.329Z,68.69
2023-10-14T02:07:14.515Z,68.53
2023-10-14T02:09:44.160Z,68.37
2023-10-14T02:12:13.187Z,68.61
2023-10-14T02:14:45.572Z,68.25
2023-10-14T02:17:14.012Z,68.05
2023-10-14T02:19:43.169Z,68.44
2023-10-14T02:22:11.986Z,68.37
2023-10-14T02:24:42.258Z,68.89
2023-10-14T02:27:14.022Z,68.58
2023-10-14T02:29:44.744Z,68.53
2023-10-14T02:32:14.368Z,68.98
2023-10-14T02:34:45.497Z,68.86
2023-10-14T02:37:16.401Z,67.93
2023-10-14T02:39:45.773Z,67.70
2023-10-14T02:42:16.842Z,67.65
2023-10-14T02:44:47.680Z,67.74
2023-10-14T02:47:18.632Z,67.58
2023-10-14T02:49:47.438Z,67.68
2023-10-14T02:52:20.079Z,67.29
2023-10-14T02:54:55.777Z,67.53
2023-10-14T02:57:25.967Z,67.57
2023-10-14T02:59:57.483Z,67.11
2023-10-14T03:02:49.561Z,67.12
2023-10-14T03:05:34.085Z,66.42
2023-10-14T03:08:10.197Z,66.72
2023-10-14T03:10:41.126Z,66.94
2023-10-14T03:13:13.441Z,67.33
2023-10-14T03:15:44.119Z,66.72
2023-10-14T03:18:18.156Z,66.89
2023-10-14T03:21:00.085Z,67.13
2023-10-14T03:23:29.877Z,70.27
2023-10-14T03:26:07.027Z,71.82
2023-10-14T03:28:38.808Z,75.48
2023-10-14T03:31:09.921Z,76.65
2023-10-14T03:33:44.209Z,79.00
2023-10-14T03:36:17.079Z,78.39
2023-10-14T03:38:55.929Z,78.35
2023-10-14T03:41:31.438Z,79.07
2023-10-14T03:44:10.712Z,80.10
2023-10-14T03:46:43.978Z,80.53
2023-10-14T03:49:22.880Z,80.95
2023-10-14T03:51:53.693Z,81.27
2023-10-14T03:54:25.572Z,79.84
2023-10-14T03:56:54.011Z,77.29
2023-10-14T03:59:25.092Z,79.20
2023-10-14T04:01:58.906Z,77.76
2023-10-14T04:04:28.528Z,77.71
2023-10-14T04:07:12.134Z,76.85
2023-10-14T04:09:41.635Z,76.92
2023-10-14T04:12:13.678Z,75.20
2023-10-14T04:14:43.185Z,73.40
2023-10-14T04:17:19.753Z,73.39
2023-10-14T04:19:54.711Z,72.59
2023-10-14T04:22:32.931Z,73.57
2023-10-14T04:25:20.054Z,74.67
2023-10-14T04:28:18.841Z,75.95
2023-10-14T04:30:53.188Z,75.47
2023-10-14T04:33:35.250Z,75.09
2023-10-14T04:36:37.607Z,75.23
2023-10-14T04:39:16.394Z,75.93
2023-10-14T04:42:18.063Z,76.24
2023-10-14T04:44:55.203Z,75.72
2023-10-14T04:47:38.244Z,75.52
2023-10-14T04:50:14.460Z,74.67
2023-10-14T04:52:45.364Z,74.66
2023-10-14T04:55:26.554Z,74.59
2023-10-14T04:58:10.953Z,78.26
2023-10-14T05:00:44.135Z,77.88
2023-10-14T05:03:14.832Z,76.98
2023-10-14T05:05:51.209Z,76.88
2023-10-14T05:08:22.743Z,76.62
2023-10-14T05:10:52.647Z,76.16
2023-10-14T05:13:26.570Z,75.04
2023-10-14T05:16:04.610Z,72.93
2023-10-14T05:18:36.848Z,71.54
2023-10-14T05:21:13.924Z,72.99
2023-10-14T05:23:43.416Z,71.89
2023-10-14T05:26:15.567Z,71.16
2023-10-14T05:28:48.465Z,70.95
2023-10-14T05:31:17.650Z,71.52
2023-10-14T05:33:50.102Z,70.75
2023-10-14T05:36:18.421Z,71.53
2023-10-14T05:38:46.710Z,71.75
2023-10-14T05:41:15.733Z,71.42
2023-10-14T05:43:43.860Z,72.00
2023-10-14T05:46:13.773Z,71.44
2023-10-14T05:48:42.198Z,71.80
2023-10-14T05:51:12.169Z,71.50
2023-10-14T05:53:40.573Z,72.46
2023-10-14T05:56:13.908Z,71.27
2023-10-14T05:58:42.296Z,71.57
2023-10-14T06:01:11.333Z,71.22
2023-10-14T06:03:40.723Z,71.92
2023-10-14T06:06:11.164Z,71.92
2023-10-14T06:08:41.843Z,70.56
2023-10-14T06:11:11.377Z,70.35
2023-10-14T06:13:39.482Z,70.29
2023-10-14T06:16:11.038Z,69.70
2023-10-14T06:18:40.115Z,69.37
2023-10-14T06:21:12.323Z,69.91
2023-10-14T06:23:48.181Z,69.60
2023-10-14T06:26:18.480Z,70.18
2023-10-14T06:28:46.857Z,69.92
2023-10-14T06:31:15.177Z,69.76
2023-10-14T06:33:43.474Z,69.75
2023-10-14T06:36:15.341Z,69.30
2023-10-14T06:38:46.375Z,69.42
2023-10-14T06:41:18.150Z,69.25
2023-10-14T06:43:48.759Z,68.80
2023-10-14T06:46:18.595Z,68.04
2023-10-14T06:48:53.552Z,68.89
2023-10-14T06:51:22.519Z,68.39
2023-10-14T06:53:53.612Z,68.22
2023-10-14T06:56:22.912Z,68.00
2023-10-14T06:58:52.815Z,67.97
2023-10-14T07:01:23.125Z,67.93
2023-10-14T07:03:53.560Z,68.31
2023-10-14T07:06:23.004Z,67.86
2023-10-14T07:08:52.140Z,67.46
2023-10-14T07:11:22.595Z,67.54
2023-10-14T07:13:51.859Z,68.32
2023-10-14T07:16:21.725Z,67.92
2023-10-14T07:18:49.999Z,67.88
2023-10-14T07:21:20.997Z,67.77
2023-10-14T07:23:51.776Z,68.47
2023-10-14T07:26:21.622Z,68.00
2023-10-14T07:28:52.921Z,67.55
2023-10-14T07:31:24.946Z,67.98
2023-10-14T07:33:54.741Z,67.44
2023-10-14T07:36:23.721Z,67.25
2023-10-14T07:38:51.997Z,67.59
2023-10-14T07:41:23.278Z,67.92
2023-10-14T07:43:51.443Z,68.02
2023-10-14T07:46:19.690Z,67.92
2023-10-14T07:48:48.625Z,67.55
2023-10-14T07:51:29.374Z,67.52
2023-10-14T07:53:58.647Z,67.23
2023-10-14T07:56:28.384Z,67.29
2023-10-14T07:58:56.906Z,67.79
2023-10-14T08:01:26.728Z,67.78
2023-10-14T08:03:58.133Z,67.65
2023-10-14T08:06:27.939Z,67.97
2023-10-14T08:08:56.365Z,67.38
2023-10-14T08:11:24.478Z,67.73
2023-10-14T08:13:53.924Z,67.67
2023-10-14T08:16:23.633Z,67.26
2023-10-14T08:18:55.289Z,67.77
2023-10-14T08:21:24.442Z,67.37
2023-10-14T08:23:52.685Z,68.04
2023-10-14T08:26:22.164Z,67.56
2023-10-14T08:28:50.738Z,67.84
2023-10-14T08:31:20.718Z,67.71
2023-10-14T08:33:49.228Z,67.70
2023-10-14T08:36:17.590Z,68.07
2023-10-14T08:38:48.871Z,68.03
2023-10-14T08:41:17.203Z,68.49
2023-10-14T08:43:50.868Z,68.17
2023-10-14T08:46:25.180Z,67.64
2023-10-14T08:48:55.224Z,68.57
2023-10-14T08:51:24.046Z,68.14
2023-10-14T08:53:54.705Z,68.18
2023-10-14T08:56:23.893Z,68.63
2023-10-14T08:58:52.050Z,68.10
2023-10-14T09:01:23.900Z,67.95
2023-10-14T09:03:52.353Z,68.26
2023-10-14T09:06:20.960Z,68.36
2023-10-14T09:08:51.383Z,68.17
2023-10-14T09:11:34.342Z,68.24
2023-10-14T09:14:04.464Z,68.20
2023-10-14T09:16:35.660Z,68.71
2023-10-14T09:19:06.494Z,68.19
2023-10-14T09:21:44.022Z,67.68
2023-10-14T09:24:12.330Z,68.38
2023-10-14T09:26:41.222Z,68.20
2023-10-14T09:29:11.112Z,67.65
2023-10-14T09:31:42.093Z,67.90
2023-10-14T09:34:24.039Z,67.65
2023-10-14T09:36:53.471Z,67.96
2023-10-14T09:39:26.199Z,67.36
2023-10-14T09:41:56.139Z,67.85
2023-10-14T09:44:24.473Z,67.03
2023-10-14T09:46:55.150Z,66.88
2023-10-14T09:49:24.483Z,66.61
2023-10-14T09:51:55.223Z,66.42
2023-10-14T09:54:25.004Z,66.08
2023-10-14T09:56:54.144Z,66.90
2023-10-14T09:59:23.968Z,66.47
2023-10-14T10:01:54.828Z,66.07
2023-10-14T10:04:25.861Z,65.90
2023-10-14T10:07:06.226Z,66.15
2023-10-14T10:10:03.044Z,65.56
2023-10-14T10:12:32.875Z,64.70
2023-10-14T10:15:04.035Z,65.00
2023-10-14T10:17:35.603Z,65.23
2023-10-14T10:20:10.361Z,65.14
2023-10-14T10:22:44.366Z,64.60
2023-10-14T10:25:15.905Z,64.17
2023-10-14T10:27:44.869Z,64.68
2023-10-14T10:30:15.334Z,64.72
2023-10-14T10:32:49.948Z,64.21
2023-10-14T10:35:19.431Z,65.16
2023-10-14T10:37:49.973Z,64.94
2023-10-14T10:40:27.345Z,65.02
2023-10-14T10:42:57.353Z,64.74
2023-10-14T10:45:31.113Z,65.03
2023-10-14T10:48:04.447Z,65.21
2023-10-14T10:50:36.811Z,64.18
2023-10-14T10:53:21.315Z,64.49
2023-10-14T10:55:52.937Z,63.22
2023-10-14T10:58:23.212Z,64.08
2023-10-14T11:00:53.157Z,64.26
2023-10-14T11:03:24.770Z,64.57
2023-10-14T11:05:54.747Z,63.18
2023-10-14T11:08:24.298Z,63.74
2023-10-14T11:10:52.909Z,64.23
2023-10-14T11:13:21.332Z,63.81
2023-10-14T11:15:51.771Z,63.71
2023-10-14T11:18:37.725Z,62.89
2023-10-14T11:21:08.747Z,63.10
2023-10-14T11:23:40.656Z,62.59
2023-10-14T11:26:12.620Z,63.35
2023-10-14T11:28:46.503Z,62.75
2023-10-14T11:31:15.596Z,63.10
2023-10-14T11:33:47.173Z,62.85
2023-10-14T11:36:19.293Z,63.52
2023-10-14T11:38:49.463Z,62.76
2023-10-14T11:41:18.908Z,61.49
2023-10-14T11:43:47.391Z,62.20
2023-10-14T11:46:16.167Z,62.01
2023-10-14T11:48:47.210Z,60.90
2023-10-14T11:51:22.457Z,61.04
2023-10-14T11:53:54.956Z,60.97
2023-10-14T11:56:22.374Z,61.34
2023-10-14T11:58:52.401Z,61.94
2023-10-14T12:01:25.478Z,61.15
2023-10-14T12:03:54.356Z,60.76
2023-10-14T12:06:24.166Z,61.07
2023-10-14T12:08:55.238Z,61.24
2023-10-14T12:11:23.455Z,60.71
2023-10-14T12:13:52.877Z,61.25
2023-10-14T12:16:22.868Z,61.24
2023-10-14T12:18:55.782Z,60.76
2023-10-14T12:21:25.730Z,60.18
2023-10-14T12:23:56.357Z,60.55
2023-10-14T12:26:38.012Z,60.47
2023-10-14T12:29:11.363Z,60.52
2023-10-14T12:31:54.001Z,61.13
2023-10-14T12:34:26.731Z,61.03
2023-10-14T12:36:56.257Z,61.17
2023-10-14T12:39:28.124Z,61.48
2023-10-14T12:42:04.742Z,62.21
2023-10-14T12:44:36.410Z,62.02
2023-10-14T12:47:12.519Z,61.11
2023-10-14T12:49:41.268Z,62.13
2023-10-14T12:52:14.808Z,61.84
2023-10-14T12:54:43.116Z,61.94
2023-10-14T12:57:13.154Z,62.55
2023-10-14T12:59:42.370Z,62.02
2023-10-14T13:02:11.209Z,62.58
2023-10-14T13:04:40.337Z,62.72
2023-10-14T13:07:10.783Z,62.89
2023-10-14T13:09:40.046Z,62.95
2023-10-14T13:12:17.278Z,63.77
2023-10-14T13:14:46.428Z,64.52
2023-10-14T13:17:14.709Z,67.66
2023-10-14T13:19:43.226Z,67.77
2023-10-14T13:22:14.966Z,68.04
2023-10-14T13:24:51.596Z,67.68
2023-10-14T13:27:21.195Z,68.58
2023-10-14T13:29:53.420Z,72.03
2023-10-14T13:32:25.953Z,72.59
2023-10-14T13:34:55.107Z,74.69
2023-10-14T13:37:26.268Z,76.54
2023-10-14T13:39:54.585Z,75.92
2023-10-14T13:42:24.547Z,75.31
2023-10-14T13:44:52.793Z,75.51
2023-10-14T13:47:21.747Z,74.54
2023-10-14T13:49:50.091Z,75.85
2023-10-14T13:52:19.260Z,75.51
2023-10-14T13:54:48.848Z,75.77
2023-10-14T13:57:19.281Z,76.97
2023-10-14T13:59:47.629Z,77.18
2023-10-14T14:02:15.926Z,77.10
2023-10-14T14:04:46.175Z,78.44
2023-10-14T14:07:14.648Z,78.14
2023-10-14T14:09:42.993Z,79.51
2023-10-14T14:12:12.806Z,80.81
2023-10-14T14:14:41.069Z,81.93
2023-10-14T14:17:09.248Z,81.31
2023-10-14T14:19:40.892Z,82.10
2023-10-14T14:22:09.572Z,83.62
2023-10-14T14:24:38.082Z,84.06
2023-10-14T14:27:06.252Z,84.26
2023-10-14T14:29:35.796Z,84.90
2023-10-14T14:32:07.005Z,85.46
2023-10-14T14:34:35.884Z,85.33
2023-10-14T14:37:04.651Z,85.58
2023-10-14T14:39:32.905Z,85.06
2023-10-14T14:42:02.845Z,84.70
2023-10-14T14:44:33.821Z,83.74
2023-10-14T14:47:04.433Z,83.46
2023-10-14T14:49:33.400Z,82.94
2023-10-14T14:52:02.219Z,82.24
2023-10-14T14:54:31.443Z,82.24
2023-10-14T14:57:01.107Z,81.77
2023-10-14T14:59:30.887Z,82.55
2023-10-14T15:01:59.132Z,82.95
2023-10-14T15:04:29.098Z,82.95
2023-10-14T15:06:57.685Z,82.43
2023-10-14T15:09:26.164Z,82.04
2023-10-14T15:11:56.425Z,82.09
2023-10-14T15:14:24.943Z,82.52
2023-10-14T15:16:53.226Z,83.17
2023-10-14T15:19:23.515Z,83.62
2023-10-14T15:21:54.286Z,83.69
2023-10-14T15:24:22.533Z,84.26
2023-10-14T15:26:50.721Z,84.72
2023-10-14T15:29:18.893Z,84.05
2023-10-14T15:31:47.752Z,84.03
2023-10-14T15:34:17.836Z,84.72
2023-10-14T15:36:46.602Z,84.54
2023-10-14T15:39:32.185Z,85.46
2023-10-14T15:42:01.676Z,85.69
2023-10-14T15:44:30.719Z,86.77
2023-10-14T15:47:01.019Z,86.04
2023-10-14T15:49:37.268Z,85.50
2023-10-14T15:52:05.929Z,86.06
2023-10-14T15:54:35.927Z,86.74
2023-10-14T15:57:09.722Z,85.71
2023-10-14T15:59:38.538Z,85.90
2023-10-14T16:02:07.091Z,86.96
2023-10-14T16:04:35.865Z,86.66
2023-10-14T16:07:04.363Z,86.16
2023-10-14T16:09:33.240Z,86.59
2023-10-14T16:12:04.769Z,86.65
2023-10-14T16:14:33.139Z,86.65
2023-10-14T16:17:02.264Z,86.30
2023-10-14T16:19:31.446Z,87.42
2023-10-14T16:21:59.740Z,88.14
2023-10-14T16:24:28.032Z,89.27
2023-10-14T16:26:56.235Z,89.31
2023-10-14T16:29:26.249Z,89.51
2023-10-14T16:31:55.830Z,90.02
2023-10-14T16:34:29.189Z,91.37
2023-10-14T16:36:57.963Z,91.36
2023-10-14T16:39:27.326Z,90.38
2023-10-14T16:41:56.157Z,90.70
2023-10-14T16:44:26.467Z,90.86
2023-10-14T16:46:55.397Z,91.23
2023-10-14T16:49:24.982Z,92.77
2023-10-14T16:51:53.624Z,91.84
2023-10-14T16:54:21.962Z,91.66
2023-10-14T16:56:51.408Z,92.52
2023-10-14T16:59:19.936Z,91.81
2023-10-14T17:01:50.566Z,92.18
2023-10-14T17:04:20.687Z,93.36
2023-10-14T17:06:49.029Z,93.24
2023-10-14T17:09:17.250Z,93.37
2023-10-14T17:11:47.988Z,92.17
2023-10-14T17:14:18.160Z,93.23
2023-10-14T17:16:46.604Z,93.17
2023-10-14T17:19:16.490Z,92.88
2023-10-14T17:21:46.582Z,93.20
2023-10-14T17:24:15.577Z,93.47
2023-10-14T17:26:44.426Z,91.87
2023-10-14T17:29:12.595Z,91.55
2023-10-14T17:31:41.068Z,92.11
2023-10-14T17:34:11.264Z,93.23
2023-10-14T17:36:41.656Z,92.96
2023-10-14T17:39:10.340Z,90.92
2023-10-14T17:41:38.685Z,90.66
2023-10-14T17:44:08.226Z,89.33
2023-10-14T17:46:37.087Z,91.30
2023-10-14T17:49:07.031Z,90.59
2023-10-14T17:51:36.997Z,89.48
2023-10-14T17:54:08.004Z,89.06
2023-10-14T17:56:36.207Z,89.64
2023-10-14T17:59:06.101Z,89.49
2023-10-14T18:01:35.376Z,88.47
2023-10-14T18:04:07.207Z,87.41
2023-10-14T18:06:36.770Z,88.76
2023-10-14T18:09:14.628Z,88.53
2023-10-14T18:11:45.715Z,88.14
2023-10-14T18:14:16.280Z,87.92
2023-10-14T18:17:00.711Z,87.87
2023-10-14T18:19:31.440Z,89.13
2023-10-14T18:21:59.675Z,88.93
2023-10-14T18:24:29.728Z,89.25
2023-10-14T18:26:57.916Z,88.70
2023-10-14T18:29:26.553Z,88.64
2023-10-14T18:31:56.259Z,88.97
2023-10-14T18:34:25.682Z,89.71
2023-10-14T18:36:56.695Z,89.55
2023-10-14T18:39:27.455Z,88.66
2023-10-14T18:41:57.356Z,88.29
2023-10-14T18:44:28.135Z,88.01
2023-10-14T18:46:58.164Z,88.06
2023-10-14T18:49:26.685Z,86.98
2023-10-14T18:51:56.189Z,83.13
2023-10-14T18:54:24.319Z,86.21
2023-10-14T18:56:54.699Z,85.33
2023-10-14T18:59:25.460Z,84.71
2023-10-14T19:01:54.137Z,82.30
2023-10-14T19:04:22.519Z,83.66
2023-10-14T19:06:52.643Z,83.93
2023-10-14T19:09:24.812Z,83.85
2023-10-14T19:11:53.356Z,84.44
2023-10-14T19:14:25.903Z,83.11
2023-10-14T19:16:58.001Z,84.59
2023-10-14T19:19:27.244Z,84.77
2023-10-14T19:21:55.541Z,83.68
2023-10-14T19:24:23.698Z,84.78
2023-10-14T19:26:52.898Z,85.34
2023-10-14T19:29:21.174Z,84.16
2023-10-14T19:31:49.945Z,85.20
2023-10-14T19:34:19.805Z,82.52
2023-10-14T19:36:49.068Z,84.70
2023-10-14T19:39:17.353Z,83.64
2023-10-14T19:41:45.808Z,84.65
2023-10-14T19:44:14.874Z,84.47
2023-10-14T19:46:43.073Z,84.07
2023-10-14T19:49:12.214Z,82.68
2023-10-14T19:51:42.628Z,82.77
2023-10-14T19:54:11.149Z,83.66
2023-10-14T19:56:39.985Z,83.41
2023-10-14T19:59:08.410Z,82.98
2023-10-14T20:01:40.268Z,82.30
2023-10-14T20:04:10.398Z,81.48
2023-10-14T20:06:38.969Z,83.03
2023-10-14T20:09:11.024Z,83.03
2023-10-14T20:11:40.023Z,82.17
2023-10-14T20:14:28.377Z,82.23
2023-10-14T20:16:56.761Z,82.54
2023-10-14T20:19:25.636Z,81.61
2023-10-14T20:21:55.404Z,82.08
2023-10-14T20:24:27.838Z,81.58
2023-10-14T20:26:56.017Z,81.99
2023-10-14T20:29:24.982Z,81.97
2023-10-14T20:34:24.036Z,81.38
2023-10-14T20:36:52.416Z,81.43
2023-10-14T20:39:29.451Z,82.38
2023-10-14T20:42:02.436Z,81.66
2023-10-14T20:44:33.555Z,81.13
2023-10-14T20:47:02.132Z,82.16
2023-10-14T20:49:31.716Z,81.64
2023-10-14T20:51:59.890Z,81.95
2023-10-14T20:54:28.132Z,81.72
2023-10-14T20:56:56.344Z,81.71
2023-10-14T20:59:26.452Z,81.40
2023-10-14T21:01:54.773Z,80.99
2023-10-14T21:04:23.889Z,81.76
2023-10-14T21:06:54.242Z,81.70
2023-10-14T21:09:22.926Z,83.23
2023-10-14T21:11:51.211Z,83.15
2023-10-14T21:14:19.434Z,81.55
2023-10-14T21:16:49.497Z,82.98
2023-10-14T21:19:17.865Z,82.48
2023-10-14T21:21:46.097Z,82.60
2023-10-14T21:24:14.275Z,82.62
2023-10-14T21:26:42.398Z,82.40
2023-10-14T21:29:10.638Z,82.27
2023-10-14T21:31:40.917Z,82.70
2023-10-14T21:34:10.999Z,83.74
2023-10-14T21:36:42.477Z,83.98
2023-10-14T21:39:10.742Z,83.40
2023-10-14T21:41:39.140Z,82.53
2023-10-14T21:44:07.570Z,83.16
2023-10-14T21:46:37.930Z,82.00
2023-10-14T21:49:07.506Z,82.17
2023-10-14T21:51:38.013Z,81.73
2023-10-14T21:54:06.918Z,82.54
2023-10-14T21:56:35.167Z,82.15
2023-10-14T21:59:05.538Z,81.67
2023-10-14T22:01:36.466Z,80.35
2023-10-14T22:04:05.956Z,81.60
2023-10-14T22:06:34.305Z,80.33
2023-10-14T22:09:04.569Z,80.34
2023-10-14T22:11:33.466Z,82.49
2023-10-14T22:14:01.623Z,82.16
2023-10-14T22:16:29.996Z,82.14
2023-10-14T22:18:59.044Z,81.38
2023-10-14T22:21:27.925Z,80.93
2023-10-14T22:23:56.235Z,79.99
2023-10-14T22:26:25.994Z,80.57
2023-10-14T22:28:54.755Z,80.45
2023-10-14T22:31:25.770Z,81.92
2023-10-14T22:33:54.549Z,80.57
2023-10-14T22:36:22.745Z,81.04
2023-10-14T22:38:51.788Z,80.52
2023-10-14T22:41:20.852Z,79.63
2023-10-14T22:43:52.802Z,80.60
2023-10-14T22:46:23.075Z,80.67
2023-10-14T22:48:51.338Z,80.74
2023-10-14T22:51:19.599Z,80.45
2023-10-14T22:53:47.815Z,80.80
2023-10-14T22:56:17.091Z,80.36
2023-10-14T22:58:45.615Z,80.34
2023-10-14T23:01:19.377Z,79.83
2023-10-14T23:03:47.992Z,80.62
2023-10-14T23:06:22.851Z,80.45
2023-10-14T23:08:51.162Z,80.10
2023-10-14T23:11:19.472Z,80.96
2023-10-14T23:13:48.870Z,80.50
2023-10-14T23:16:18.954Z,81.03
2023-10-14T23:18:48.111Z,80.94
2023-10-14T23:21:16.237Z,80.69
2023-10-14T23:23:44.444Z,80.55
2023-10-14T23:26:12.637Z,79.67
2023-10-14T23:28:40.803Z,80.30
2023-10-14T23:31:09.436Z,79.65
2023-10-14T23:33:43.108Z,79.63
2023-10-14T23:36:11.554Z,79.17
2023-10-14T23:38:39.871Z,79.45
2023-10-14T23:41:09.150Z,81.13
2023-10-14T23:43:40.460Z,80.20
2023-10-14T23:46:10.101Z,79.86
2023-10-14T23:48:39.723Z,79.82
2023-10-14T23:51:08.746Z,80.40
2023-10-14T23:53:36.957Z,80.04
2023-10-14T23:56:07.002Z,79.19
2023-10-14T23:58:35.456Z,79.47
